PAEI METAR and TAF weather

Enter ICAO airport designator
Station Type Date Time Source
PAEI METAR 2019/04/19 09:56 UTC NOAA

PAEI 190956Z 26004KT 8SM -SN OVC005 M02/M03 A2953 RMK AO2A VIS 2 1/2 RWY14 SNB34 SLP010 P0000 T10181034 $


Station Type Date Time Source
PAEI Decoded METAR 2019/04/19 09:56 UTC NOAA

Fairbanks, Eielson Air Force Base, AK, United States (PAEI) 64-39N 147-06W 167M
Apr 19, 2019 - 05:56 AM EDT / 2019.04.19 0956 UTC
Wind: from the W (260 degrees) at 5 MPH (4 KT):0
Visibility: 8 mile(s):0
Sky conditions: overcast
Weather: light snow
Precipitation last hour: A trace
Temperature: 28.8 F (-1.8 C)
Windchill: 23 F (-5 C):1
Dew Point: 25.9 F (-3.4 C)
Relative Humidity: 88%
Pressure (altimeter): 29.53 in. Hg (1000 hPa)
ob: PAEI 190956Z 26004KT 8SM -SN OVC005 M02/M03 A2953 RMK AO2A VIS 2 1/2 RWY14 SNB34 SLP010 P0000 T10181034
cycle: 10

Station Type Date Time Source
PAEI TAF 2019/04/19 06:33 UTC NOAA

TAF TAF
AMD PAEI 190625Z 1906/2010 VRB06KT 8000 -SN BR BKN005 620059 QNH2948INS
BECMG 1919/1920 VRB06KT 9999 NSW BKN020 620208 QNH2956INS TX03/2004Z TNM02/1913Z

Example: see airport list